Time;durP1;ratioP1;P1;durP2;ratioP2;P2;SDS_P1;SDS_P2;PMS_P1;PMS_P2;Temp;Humidity;BMP_temperature;BMP_pressure;BME280_temperature;BME280_humidity;BME280_pressure;Samples;Min_cycle;Max_cycle;Signal;HPM_P1;HPM_P2
2021/12/04 00:01:09;;;;;;;57.47;18.67;;;-3274.80;61.80;;;;;;5019889;28;20022;-89
2021/12/04 00:03:37;;;;;;;60.43;20.10;;;-3274.70;62.00;;;;;;5021137;28;20017;-89
2021/12/04 00:06:09;;;;;;;63.57;21.70;;;-3274.60;62.30;;;;;;5041531;28;20025;-88
2021/12/04 00:08:35;;;;;;;56.43;19.30;;;-3274.50;62.50;;;;;;5022163;28;20029;-88
2021/12/04 00:11:02;;;;;;;61.67;21.43;;;-3274.40;62.70;;;;;;5013251;28;20050;-90
2021/12/04 00:13:28;;;;;;;72.87;23.57;;;-3274.40;62.90;;;;;;5026201;28;20031;-89
2021/12/04 00:15:53;;;;;;;;;;;-3274.30;63.00;;;;;;5015023;28;20022;-89
2021/12/04 00:18:22;;;;;;;147.00;36.50;;;-3274.30;63.10;;;;;;5019584;28;19973;-88
2021/12/04 00:20:48;;;;;;;160.47;39.60;;;-3274.20;62.90;;;;;;5019033;28;20522;-90
2021/12/04 00:23:13;;;;;;;;;;;-3274.10;63.10;;;;;;5025698;28;20056;-89
2021/12/04 00:25:39;;;;;;;210.97;49.57;;;-3274.00;63.30;;;;;;5016856;28;19941;-90
2021/12/04 00:28:05;;;;;;;;;;;-3274.00;63.20;;;;;;5024111;28;20040;-89
2021/12/04 00:30:31;;;;;;;140.73;38.90;;;-3274.00;63.40;;;;;;5024791;28;19909;-89
2021/12/04 00:33:02;;;;;;;;;;;-3274.00;63.20;;;;;;5014059;28;20059;-90
2021/12/04 00:51:34;;;;;;;147.80;39.80;;;-3273.40;64.20;;;;;;5022592;28;20045;-89
2021/12/04 00:54:01;;;;;;;127.00;36.77;;;-3273.40;64.40;;;;;;5025117;28;20026;-91
2021/12/04 00:56:27;;;;;;;137.53;34.83;;;-3273.40;64.50;;;;;;5026241;28;20083;-88
2021/12/04 00:58:52;;;;;;;;;;;-3273.30;64.70;;;;;;5034199;28;20041;-89
2021/12/04 01:01:21;;;;;;;53.77;19.40;;;-3273.30;64.80;;;;;;5024626;28;19909;-90
2021/12/04 01:03:47;;;;;;;63.90;20.23;;;-3273.30;64.50;;;;;;5017473;28;20075;-88
2021/12/04 01:06:13;;;;;;;;;;;-3273.20;64.70;;;;;;5017990;28;20089;-89
2021/12/04 01:08:39;;;;;;;52.10;19.40;;;-3273.20;64.80;;;;;;5029024;28;19949;-88
2021/12/04 01:11:05;;;;;;;49.13;18.27;;;-3273.20;64.60;;;;;;5034780;28;20025;-89
2021/12/04 01:13:32;;;;;;;57.47;19.13;;;-3273.10;64.80;;;;;;5034853;28;20021;-90
2021/12/04 01:15:57;;;;;;;51.30;17.57;;;-3273.00;65.00;;;;;;5034615;28;20044;-89
2021/12/04 01:18:23;;;;;;;;;;;-3273.00;65.20;;;;;;5035192;28;20522;-90
2021/12/04 01:20:49;;;;;;;51.57;17.13;;;-3273.00;65.40;;;;;;5035210;28;19916;-89
2021/12/04 01:23:16;;;;;;;46.75;16.98;;;-3273.00;65.10;;;;;;5034576;28;20512;-89
2021/12/04 01:25:43;;;;;;;51.10;17.83;;;-3273.00;65.30;;;;;;5034821;28;20032;-89
2021/12/04 01:28:09;;;;;;;45.63;18.03;;;-3272.90;65.40;;;;;;5034283;28;20104;-89
2021/12/04 01:30:34;;;;;;;;;;;-3273.00;65.60;;;;;;5036202;28;20505;-89
2021/12/04 01:33:00;;;;;;;48.70;15.17;;;-3272.90;65.70;;;;;;5034705;28;19920;-88
2021/12/04 01:35:26;;;;;;;;;;;-3272.90;65.50;;;;;;5034744;28;20029;-90
2021/12/04 01:37:51;;;;;;;58.53;16.03;;;-3272.90;65.60;;;;;;5033940;28;20022;-90
2021/12/04 01:40:18;;;;;;;;;;;-3272.90;65.40;;;;;;5034492;28;20018;-90
2021/12/04 01:42:44;;;;;;;44.37;17.70;;;-3272.80;65.60;;;;;;5034168;28;19912;-89
2021/12/04 01:45:11;;;;;;;44.00;16.70;;;-3272.80;65.50;;;;;;5033941;28;20029;-90
2021/12/04 01:47:37;;;;;;;55.40;17.33;;;-3272.80;65.60;;;;;;5034076;28;20065;-89
2021/12/04 01:50:03;;;;;;;;;;;-3272.80;65.80;;;;;;5033917;28;20107;-90
2021/12/04 01:52:29;;;;;;;43.22;18.17;;;-3272.70;66.00;;;;;;5034406;28;19921;-89
2021/12/04 01:54:54;;;;;;;;;;;-3272.70;65.70;;;;;;5034454;28;20025;-89
2021/12/04 01:57:23;;;;;;;39.93;17.03;;;-3272.70;65.80;;;;;;5033529;28;19987;-89
2021/12/04 01:59:50;;;;;;;52.10;17.73;;;-3272.60;65.70;;;;;;5033670;28;20128;-89
2021/12/04 02:02:16;;;;;;;40.83;14.23;;;-3272.50;65.90;;;;;;5033748;28;20029;-90
2021/12/04 02:04:41;;;;;;;;;;;-3272.50;66.10;;;;;;5033768;28;20076;-90
2021/12/04 02:07:09;;;;;;;50.30;17.43;;;-3272.50;66.30;;;;;;5033868;28;19909;-90
2021/12/04 02:09:36;;;;;;;45.47;16.80;;;-3272.40;66.10;;;;;;5034368;28;20040;-91
2021/12/04 02:12:05;;;;;;;43.30;15.63;;;-3272.40;66.20;;;;;;5033570;28;20124;-90
2021/12/04 02:14:32;;;;;;;39.57;15.63;;;-3272.40;66.40;;;;;;5032950;28;20091;-90
2021/12/04 02:16:58;;;;;;;42.50;16.67;;;-3272.40;66.50;;;;;;5024183;28;20048;-90
2021/12/04 02:19:24;;;;;;;;;;;-3272.30;66.60;;;;;;5032959;28;20017;-90
2021/12/04 02:21:49;;;;;;;40.53;14.63;;;-3272.30;66.70;;;;;;5032959;28;20247;-90
2021/12/04 02:24:15;;;;;;;;;;;-3272.30;66.50;;;;;;5033835;28;20474;-89
2021/12/04 02:26:41;;;;;;;52.67;15.17;;;-3272.30;66.60;;;;;;5033004;28;20281;-90
2021/12/04 02:29:06;;;;;;;;;;;-3272.30;66.40;;;;;;5033693;28;20055;-90
2021/12/04 02:31:32;;;;;;;47.27;17.67;;;-3272.30;66.60;;;;;;5033236;28;20417;-90
2021/12/04 02:33:57;;;;;;;;;;;-3272.20;66.50;;;;;;5034202;28;20018;-90
2021/12/04 02:36:23;;;;;;;47.53;18.57;;;-3272.20;66.60;;;;;;5032962;28;19995;-90
2021/12/04 02:38:52;;;;;;;;;;;-3272.10;66.50;;;;;;5033942;28;20112;-90
2021/12/04 02:41:23;;;;;;;53.63;17.60;;;-3272.20;66.70;;;;;;5033614;28;19956;-90
2021/12/04 02:43:51;;;;;;;44.73;16.67;;;-3272.10;66.50;;;;;;5034042;28;20022;-90
2021/12/04 02:46:18;;;;;;;50.83;18.80;;;-3272.10;66.70;;;;;;5032961;28;20057;-90
2021/12/04 02:48:46;;;;;;;48.60;18.20;;;-3272.00;66.90;;;;;;5034239;28;20026;-91
2021/12/04 02:51:15;;;;;;;48.97;18.83;;;-3272.00;67.00;;;;;;5033069;28;20382;-89
2021/12/04 02:53:41;;;;;;;53.20;18.70;;;-3272.00;67.10;;;;;;5033270;28;20030;-90
2021/12/04 02:56:06;;;;;;;;;;;-3272.00;67.20;;;;;;5033753;28;20031;-91
2021/12/04 02:58:33;;;;;;;54.53;18.53;;;-3272.00;67.30;;;;;;5033091;28;19913;-90
2021/12/04 03:01:00;;;;;;;59.07;19.10;;;-3272.00;67.00;;;;;;5035994;28;20030;-90
2021/12/04 03:03:26;;;;;;;50.07;18.07;;;-3271.90;67.10;;;;;;5037491;28;20044;-91
2021/12/04 03:05:52;;;;;;;42.47;16.50;;;-3272.00;67.30;;;;;;5037491;28;20126;-90
2021/12/04 03:08:18;;;;;;;;;;;-3271.90;67.40;;;;;;5037612;28;20131;-90
2021/12/04 03:10:45;;;;;;;46.60;15.83;;;-3271.90;67.50;;;;;;5036865;28;19909;-91
2021/12/04 03:13:11;;;;;;;51.90;17.20;;;-3271.90;67.20;;;;;;5036901;28;20079;-90
2021/12/04 03:15:38;;;;;;;49.27;17.47;;;-3271.90;67.30;;;;;;5036913;28;20490;-90
2021/12/04 03:18:04;;;;;;;35.73;16.10;;;-3271.90;67.50;;;;;;5036441;28;20029;-90
2021/12/04 03:20:32;;;;;;;45.90;17.57;;;-3271.80;67.60;;;;;;5036524;28;20022;-90
2021/12/04 03:23:01;;;;;;;40.20;16.23;;;-3271.80;67.60;;;;;;5037036;28;20022;-90
2021/12/04 03:25:27;;;;;;;52.50;20.97;;;-3271.70;67.70;;;;;;5036742;28;20355;-90
2021/12/04 03:27:52;;;;;;;;;;;-3271.70;67.70;;;;;;5037346;28;20037;-90
2021/12/04 03:30:36;;;;;;;51.60;17.97;;;-3271.80;67.80;;;;;;5036676;28;19916;-90
2021/12/04 03:41:08;;;;;;;50.20;18.60;;;-3271.70;67.80;;;;;;5037847;28;20128;-89
2021/12/04 03:43:34;;;;;;;62.93;20.40;;;-3271.70;67.90;;;;;;5036235;28;20075;-89
2021/12/04 03:46:06;;;;;;;68.93;23.77;;;-3271.70;67.90;;;;;;5036530;28;20440;-89
2021/12/04 03:51:00;;;;;;;54.67;21.13;;;-3271.70;68.00;;;;;;5037086;28;20108;-90
2021/12/04 03:53:26;;;;;;;61.87;19.67;;;-3271.70;68.10;;;;;;5035883;28;20034;-90
2021/12/04 03:55:52;;;;;;;;;;;-3271.80;68.20;;;;;;5036016;28;20025;-89
2021/12/04 03:58:20;;;;;;;50.33;17.53;;;-3271.80;68.30;;;;;;5036687;28;19972;-89
2021/12/04 04:00:46;;;;;;;46.33;18.87;;;-3271.90;68.00;;;;;;5035390;28;20488;-89
2021/12/04 04:03:12;;;;;;;41.47;16.57;;;-3271.80;68.10;;;;;;5035630;28;20032;-89
2021/12/04 04:05:38;;;;;;;;;;;-3271.90;68.20;;;;;;5036197;28;20021;-90
2021/12/04 04:08:04;;;;;;;43.77;16.90;;;-3271.80;68.30;;;;;;5035743;28;20459;-90
2021/12/04 04:10:29;;;;;;;;;;;-3271.90;68.10;;;;;;5035743;28;20025;-90
2021/12/04 04:12:55;;;;;;;43.90;16.33;;;-3271.90;68.20;;;;;;5034182;28;20361;-89
2021/12/04 04:15:21;;;;;;;;;;;-3271.90;68.00;;;;;;5036352;28;20022;-89
2021/12/04 04:17:47;;;;;;;49.60;19.48;;;-3271.90;68.10;;;;;;5035639;28;19909;-90
2021/12/04 04:20:14;;;;;;;;;;;-3271.90;68.00;;;;;;5036257;28;20022;-91
2021/12/04 04:22:40;;;;;;;;;;;-3271.90;68.10;;;;;;5036305;28;19909;-90
2021/12/04 04:25:08;;;;;;;33.90;17.53;;;-3272.00;68.00;;;;;;5035769;28;19913;-90
2021/12/04 04:27:34;;;;;;;46.77;17.93;;;-3272.00;67.90;;;;;;5035843;28;20485;-89
2021/12/04 04:29:59;;;;;;;;;;;-3271.90;68.00;;;;;;5035897;28;20025;-89
2021/12/04 04:32:25;;;;;;;43.37;15.03;;;-3271.90;68.20;;;;;;5035747;28;19919;-89
2021/12/04 04:34:54;;;;;;;;;;;-3271.90;68.10;;;;;;5036095;28;20092;-88
2021/12/04 05:12:47;;;;;;;63.07;23.07;;;-3271.90;68.80;;;;;;5031879;28;20045;-90
2021/12/04 05:15:34;;;;;;;56.50;23.37;;;-3271.90;68.90;;;;;;5034537;28;20029;-89
2021/12/04 05:20:55;;;;;;;45.13;20.43;;;-3271.90;69.00;;;;;;5035829;28;20040;-89
2021/12/04 05:23:22;;;;;;;36.78;16.35;;;-3271.90;69.10;;;;;;5033949;28;20037;-90
2021/12/04 05:25:50;;;;;;;53.23;21.23;;;-3271.90;69.20;;;;;;5033988;28;20049;-89
2021/12/04 05:28:16;;;;;;;61.70;21.90;;;-3271.90;69.20;;;;;;5034121;28;20028;-89
2021/12/04 05:30:41;;;;;;;75.53;25.67;;;-3271.90;69.30;;;;;;5035044;28;20473;-89
2021/12/04 05:33:07;;;;;;;;;;;-3271.90;69.40;;;;;;5034823;28;20032;-89
2021/12/04 05:35:33;;;;;;;64.13;22.20;;;-3272.00;69.50;;;;;;5034729;28;19955;-89
2021/12/04 05:37:58;;;;;;;;;;;-3271.90;69.30;;;;;;5035137;28;20057;-88
2021/12/04 05:40:24;;;;;;;48.33;20.97;;;-3272.00;69.30;;;;;;5034351;28;20400;-90
2021/12/04 05:42:50;;;;;;;;;;;-3272.00;69.10;;;;;;5034738;28;20029;-90
2021/12/04 05:45:22;;;;;;;39.40;18.60;;;-3272.00;69.30;;;;;;5033409;28;19909;-89
2021/12/04 05:47:59;;;;;;;36.57;16.23;;;-3272.00;69.20;;;;;;5033779;28;20053;-90
2021/12/04 05:53:03;;;;;;;;;;;-3272.00;69.40;;;;;;5035203;28;20068;-90
2021/12/04 05:55:32;;;;;;;46.03;15.37;;;-3272.00;69.50;;;;;;5034416;28;19964;-89
2021/12/04 05:57:57;;;;;;;42.90;17.57;;;-3272.10;69.30;;;;;;5033279;28;20477;-88
2021/12/04 06:00:24;;;;;;;;;;;-3272.10;69.40;;;;;;5033678;28;20018;-90
2021/12/04 06:02:50;;;;;;;36.38;16.35;;;-3272.20;69.50;;;;;;5033409;28;20365;-89
2021/12/04 06:05:15;;;;;;;;;;;-3272.20;69.40;;;;;;5033662;28;20032;-89
2021/12/04 06:07:41;;;;;;;32.53;13.43;;;-3272.20;69.40;;;;;;5033076;28;19909;-90
2021/12/04 06:10:07;;;;;;;;;;;-3272.30;69.20;;;;;;5033438;28;20044;-89
2021/12/04 06:12:33;;;;;;;33.10;12.57;;;-3272.30;69.30;;;;;;5032861;28;19917;-88
2021/12/04 06:15:00;;;;;;;34.53;13.63;;;-3272.40;69.10;;;;;;5033105;28;20426;-89
2021/12/04 06:17:28;;;;;;;33.87;14.17;;;-3272.40;69.20;;;;;;5033202;28;20482;-89
2021/12/04 06:22:40;;;;;;;34.90;13.97;;;-3272.60;69.40;;;;;;5028278;28;20524;-90
2021/12/04 06:25:08;;;;;;;28.90;13.10;;;-3272.70;69.40;;;;;;5033072;28;20021;-90
2021/12/04 06:27:37;;;;;;;32.47;12.20;;;-3272.80;69.40;;;;;;5033327;28;20029;-90
2021/12/04 06:30:06;;;;;;;31.13;12.47;;;-3272.80;69.50;;;;;;5033147;28;20026;-90
2021/12/04 06:32:37;;;;;;;33.13;13.77;;;-3273.00;69.50;;;;;;5033117;28;20497;-91
2021/12/04 06:35:09;;;;;;;34.87;13.57;;;-3273.10;69.50;;;;;;5032810;28;20026;-91
2021/12/04 06:37:34;;;;;;;30.83;12.40;;;-3273.20;69.50;;;;;;5032879;28;20075;-90
2021/12/04 06:40:00;;;;;;;;;;;-3273.30;69.40;;;;;;5033560;28;20405;-90
2021/12/04 06:42:26;;;;;;;26.30;11.13;;;-3273.30;69.50;;;;;;5032834;28;19909;-89
2021/12/04 06:44:54;;;;;;;;;;;-3273.50;69.20;;;;;;5033273;28;20033;-89
2021/12/04 06:47:21;;;;;;;28.70;9.97;;;-3273.60;69.20;;;;;;5032800;28;19909;-90
2021/12/04 06:49:48;;;;;;;23.33;10.37;;;-3273.70;68.90;;;;;;5032993;28;20029;-90
2021/12/04 06:52:18;;;;;;;28.40;11.27;;;-3273.70;69.00;;;;;;5033141;28;20029;-90
2021/12/04 06:57:38;;;;;;;17.67;8.73;;;-3273.80;69.20;;;;;;5031886;28;20036;-89
2021/12/04 07:00:07;;;;;;;23.30;9.13;;;-3273.90;69.20;;;;;;5033344;28;20393;-89
2021/12/04 07:02:32;;;;;;;23.90;9.07;;;-3274.00;69.20;;;;;;5032930;28;20084;-89
2021/12/04 07:04:58;;;;;;;;;;;-3274.00;69.20;;;;;;5033860;28;20037;-90
2021/12/04 07:07:23;;;;;;;28.73;9.50;;;-3274.20;69.20;;;;;;5033502;28;19931;-90
2021/12/04 07:09:49;;;;;;;;;;;-3274.20;68.90;;;;;;5035343;28;20117;-90
2021/12/04 07:12:14;;;;;;;23.93;9.57;;;-3274.30;69.00;;;;;;5032738;28;19917;-90
2021/12/04 07:14:40;;;;;;;;;;;-3274.30;68.70;;;;;;5034010;28;20026;-89
2021/12/04 07:17:08;;;;;;;22.63;8.43;;;-3274.40;68.80;;;;;;5033521;28;19915;-89
2021/12/04 07:19:34;;;;;;;24.30;8.77;;;-3274.50;68.60;;;;;;5034851;28;20371;-89
2021/12/04 07:22:01;;;;;;;;;;;-3274.50;68.70;;;;;;5034204;28;20036;-89
2021/12/04 07:24:28;;;;;;;;;;;-3274.60;68.80;;;;;;5032959;28;19943;-89
2021/12/04 07:26:54;;;;;;;21.67;9.23;;;-3274.70;68.50;;;;;;5032675;28;19916;-90
2021/12/04 07:29:19;;;;;;;;;;;-3274.80;68.30;;;;;;5033711;28;20021;-90
2021/12/04 07:31:45;;;;;;;23.33;9.00;;;-3274.80;68.40;;;;;;5033044;28;20003;-90
2021/12/04 07:34:11;;;;;;;21.95;9.13;;;-3274.90;68.20;;;;;;5033738;28;20029;-90
2021/12/04 07:36:36;;;;;;;;;;;-3275.00;68.30;;;;;;5034295;28;20025;-90
2021/12/04 07:39:03;;;;;;;29.43;11.83;;;-3275.10;68.40;;;;;;5032330;28;19987;-88
2021/12/04 07:41:29;;;;;;;27.03;12.40;;;-3275.20;68.20;;;;;;5032531;28;20022;-89
2021/12/04 07:43:55;;;;;;;;;;;-3275.30;68.30;;;;;;5033056;28;20028;-89
2021/12/04 07:46:21;;;;;;;32.53;13.03;;;-3275.40;68.40;;;;;;5033521;28;20360;-88
2021/12/04 07:48:46;;;;;;;;;;;-3275.50;68.20;;;;;;5038536;28;20033;-89
2021/12/04 07:51:14;;;;;;;26.23;10.33;;;-3275.50;68.30;;;;;;5037344;28;19909;-89
2021/12/04 07:53:40;;;;;;;31.10;12.60;;;-3275.60;68.10;;;;;;5036998;28;20421;-89
2021/12/04 07:56:07;;;;;;;;;;;-3275.70;68.30;;;;;;5036388;28;20029;-86
2021/12/04 07:58:33;;;;;;;32.33;12.57;;;-3275.70;68.50;;;;;;5034415;28;19917;-85
2021/12/04 08:00:58;;;;;;;;;;;-3275.80;68.30;;;;;;5035567;28;20532;-85
2021/12/04 08:03:24;;;;;;;42.07;16.50;;;-3275.90;68.50;;;;;;5035215;28;19956;-87
2021/12/04 08:05:51;;;;;;;;;;;-3276.00;68.20;;;;;;5035428;28;20029;-88
2021/12/04 08:08:17;;;;;;;64.47;22.67;;;-3276.10;68.40;;;;;;5027059;28;19975;-87
2021/12/04 08:10:42;;;;;;;;;;;-3276.20;68.20;;;;;;5034838;28;20025;-86
2021/12/04 08:13:08;;;;;;;323.27;86.87;;;-3276.20;68.40;;;;;;5034642;28;19948;-86
2021/12/04 08:15:37;;;;;;;252.30;68.10;;;-3276.30;68.20;;;;;;5034592;28;20048;-85
2021/12/04 08:18:03;;;;;;;179.73;55.87;;;-3276.40;68.50;;;;;;5021362;28;20021;-85
2021/12/04 08:20:29;;;;;;;346.43;97.77;;;-3276.50;68.60;;;;;;5034134;28;20020;-86
2021/12/04 08:22:55;;;;;;;;;;;-3276.60;68.70;;;;;;5036761;28;20033;-87
2021/12/04 08:25:23;;;;;;;177.50;56.83;;;-3276.70;68.80;;;;;;5035174;28;19913;-86
2021/12/04 08:27:50;;;;;;;176.33;58.67;;;0.00;68.50;;;;;;5035023;28;20022;-86
2021/12/04 08:30:20;;;;;;;126.00;46.50;;;0.00;68.60;;;;;;5035511;28;20032;-87
2021/12/04 08:32:46;;;;;;;106.20;42.80;;;0.00;68.90;;;;;;5036072;28;20029;-86
2021/12/04 08:35:12;;;;;;;;;;;0.10;69.00;;;;;;5035472;28;20032;-86
2021/12/04 08:37:41;;;;;;;117.60;42.73;;;0.20;69.00;;;;;;5034995;28;19909;-88
2021/12/04 08:40:11;;;;;;;133.07;44.63;;;0.30;68.70;;;;;;5034537;28;20272;-86
2021/12/04 08:42:39;;;;;;;123.60;46.33;;;0.40;68.80;;;;;;5027823;28;20467;-86
2021/12/04 08:45:06;;;;;;;108.70;37.67;;;0.50;68.90;;;;;;5034387;28;20034;-86
2021/12/04 08:47:33;;;;;;;100.67;36.70;;;0.60;68.90;;;;;;5034551;28;20029;-86
2021/12/04 08:49:58;;;;;;;175.00;54.47;;;0.60;68.90;;;;;;5034375;28;20095;-86
2021/12/04 08:52:24;;;;;;;;;;;0.70;69.00;;;;;;5034729;28;20414;-86
2021/12/04 08:54:50;;;;;;;93.13;32.53;;;0.70;69.00;;;;;;5034165;28;20011;-86
2021/12/04 08:57:15;;;;;;;;;;;0.80;68.70;;;;;;5034597;28;20021;-87
2021/12/04 08:59:41;;;;;;;84.33;32.53;;;0.80;68.80;;;;;;5033378;28;20385;-86
2021/12/04 09:02:07;;;;;;;95.75;33.28;;;0.90;68.60;;;;;;5034686;28;20037;-86
2021/12/04 09:04:35;;;;;;;107.73;39.17;;;0.90;68.70;;;;;;5033681;28;20108;-86
2021/12/04 09:07:02;;;;;;;99.20;39.07;;;1.00;68.80;;;;;;5035303;28;20037;-86
2021/12/04 09:09:28;;;;;;;113.93;39.60;;;1.10;68.90;;;;;;5033302;28;20398;-86
2021/12/04 09:12:02;;;;;;;101.13;38.07;;;1.30;68.80;;;;;;5033861;28;20104;-86
2021/12/04 09:14:31;;;;;;;101.00;40.27;;;1.30;68.80;;;;;;5033780;28;20021;-86
2021/12/04 09:16:59;;;;;;;97.53;41.07;;;1.40;68.70;;;;;;5033628;28;20087;-87
2021/12/04 09:19:25;;;;;;;101.80;40.67;;;1.50;68.60;;;;;;5033816;28;20021;-86
2021/12/04 09:21:52;;;;;;;;;;;1.70;68.60;;;;;;5033770;28;20362;-87
2021/12/04 09:24:24;;;;;;;93.10;40.50;;;1.80;68.60;;;;;;5033354;28;19909;-86
2021/12/04 09:32:16;;;;;;;105.57;39.60;;;2.20;68.10;;;;;;5026618;28;20025;-87
2021/12/04 10:04:31;;;;;;;32.40;13.07;;;3.80;63.80;;;;;;5033636;28;20060;-88
2021/12/04 10:18:52;;;;;;;139.07;44.43;;;4.90;60.60;;;;;;4991829;28;20117;-86
2021/12/04 10:21:46;;;;;;;470.33;155.23;;;5.20;59.70;;;;;;4975272;28;20357;-86
2021/12/04 10:35:00;;;;;;;196.40;58.47;;;5.50;57.50;;;;;;5031925;28;20060;-86
2021/12/04 10:37:28;;;;;;;128.40;43.70;;;5.50;57.00;;;;;;5033382;28;20462;-86
2021/12/04 10:39:59;;;;;;;106.73;36.70;;;5.50;56.80;;;;;;5031500;28;20100;-88
2021/12/04 10:42:31;;;;;;;124.47;37.03;;;5.50;56.40;;;;;;5031031;28;20382;-84
2021/12/04 10:44:57;;;;;;;155.90;48.87;;;5.50;56.20;;;;;;5031122;28;20504;-84
2021/12/04 10:47:25;;;;;;;166.93;48.97;;;5.50;56.10;;;;;;5030921;28;20662;-85
2021/12/04 10:50:16;;;;;;;169.70;51.13;;;5.50;55.90;;;;;;5030975;28;20032;-85
2021/12/04 10:55:32;;;;;;;144.87;48.60;;;5.60;55.10;;;;;;5032476;28;20037;-85
2021/12/04 11:01:10;;;;;;;35.90;16.23;;;5.80;53.70;;;;;;5024949;28;20021;-84
2021/12/04 11:37:00;;;;;;;17.52;7.43;;;8.10;47.50;;;;;;5036333;28;20107;-86
2021/12/04 11:39:54;;;;;;;10.57;5.05;;;8.40;46.80;;;;;;5034276;28;20041;-86
2021/12/04 11:44:54;;;;;;;14.43;5.80;;;8.80;45.70;;;;;;5035950;28;20037;-86
2021/12/04 11:47:20;;;;;;;17.33;7.07;;;8.80;45.00;;;;;;5035741;28;20017;-85
2021/12/04 11:49:47;;;;;;;19.67;7.57;;;9.00;44.60;;;;;;5034188;28;20025;-85
2021/12/04 11:52:17;;;;;;;19.92;8.77;;;9.00;44.10;;;;;;5034936;28;20104;-85
2021/12/04 11:54:49;;;;;;;16.50;7.50;;;9.20;43.70;;;;;;5034650;28;20021;-86
2021/12/04 11:57:30;;;;;;;15.80;7.53;;;9.30;43.10;;;;;;5034347;28;20021;-81
2021/12/04 12:00:28;;;;;;;15.38;7.07;;;9.50;43.00;;;;;;5035143;28;20035;-85
2021/12/04 12:03:20;;;;;;;12.60;6.07;;;9.80;42.50;;;;;;5029520;28;20390;-83
2021/12/04 12:05:50;;;;;;;13.75;6.55;;;9.80;42.10;;;;;;5028526;28;20029;-83
2021/12/04 12:08:24;;;;;;;13.23;6.07;;;9.90;42.20;;;;;;5027122;28;20026;-83
2021/12/04 12:10:54;;;;;;;12.85;5.32;;;10.00;41.70;;;;;;5027683;28;20046;-82
2021/12/04 12:13:27;;;;;;;12.63;6.50;;;10.10;41.80;;;;;;5033423;28;20029;-83
2021/12/04 12:16:03;;;;;;;13.60;5.88;;;10.10;41.40;;;;;;5033385;28;20022;-84
2021/12/04 12:18:29;;;;;;;18.67;6.53;;;10.20;41.10;;;;;;5033170;28;20359;-83
2021/12/04 12:21:02;;;;;;;;;;;10.10;41.40;;;;;;5033691;28;20355;-83
2021/12/04 12:23:31;;;;;;;11.60;5.18;;;10.10;41.90;;;;;;5033242;28;19909;-84
2021/12/04 12:37:24;;;;;;;11.63;5.32;;;9.50;41.10;;;;;;5034461;28;20431;-84
2021/12/04 12:39:56;;;;;;;12.60;5.20;;;9.40;41.10;;;;;;5032802;28;20102;-83
2021/12/04 12:42:33;;;;;;;13.00;6.10;;;9.30;41.90;;;;;;5032755;28;20025;-83
2021/12/04 12:45:28;;;;;;;22.05;7.82;;;9.20;42.00;;;;;;5034314;28;20509;-84
2021/12/04 12:48:06;;;;;;;23.90;10.38;;;9.00;41.80;;;;;;5032568;28;20021;-83
2021/12/04 12:50:46;;;;;;;18.30;8.25;;;8.80;42.00;;;;;;5032860;28;20025;-84
2021/12/04 12:56:58;;;;;;;32.95;9.10;;;8.40;41.80;;;;;;5035487;28;20040;-87
2021/12/04 12:59:40;;;;;;;22.60;9.10;;;8.20;41.80;;;;;;5023313;28;20041;-87
2021/12/04 13:13:44;;;;;;;49.93;18.20;;;7.40;42.90;;;;;;5037257;28;20119;-87
2021/12/04 13:16:19;;;;;;;64.25;20.08;;;7.20;43.00;;;;;;5035083;28;20032;-87
2021/12/04 13:18:51;;;;;;;48.72;16.77;;;7.10;43.10;;;;;;5033473;28;20017;-88
2021/12/04 13:21:17;;;;;;;23.63;11.43;;;7.00;43.30;;;;;;5034686;28;20048;-88
2021/12/04 13:23:47;;;;;;;;;;;6.80;43.50;;;;;;5034928;28;20021;-87
2021/12/04 13:26:13;;;;;;;26.17;9.90;;;6.70;43.80;;;;;;5033039;28;19959;-87
2021/12/04 13:28:44;;;;;;;19.90;7.87;;;6.70;44.00;;;;;;5033246;28;20025;-86
2021/12/04 13:31:10;;;;;;;15.03;6.67;;;6.50;44.20;;;;;;5033874;28;20386;-87
2021/12/04 13:33:38;;;;;;;14.65;6.50;;;6.40;44.50;;;;;;5032318;28;20033;-87
2021/12/04 13:36:15;;;;;;;13.73;6.67;;;6.20;44.70;;;;;;5033189;28;20036;-87
2021/12/04 13:38:41;;;;;;;28.67;12.03;;;6.10;44.80;;;;;;5029427;28;20029;-87
2021/12/04 13:41:07;;;;;;;19.50;10.30;;;6.10;45.00;;;;;;5033088;28;20022;-86
2021/12/04 13:43:32;;;;;;;26.67;10.40;;;6.00;45.10;;;;;;5032725;28;20039;-86
2021/12/04 13:46:02;;;;;;;31.95;11.55;;;5.90;45.30;;;;;;5032769;28;20470;-86
2021/12/04 13:48:30;;;;;;;22.10;11.50;;;5.70;45.50;;;;;;5033137;28;20056;-86
2021/12/04 13:50:56;;;;;;;30.07;11.70;;;5.60;45.70;;;;;;5033042;28;20025;-87
2021/12/04 13:53:21;;;;;;;;;;;5.60;46.00;;;;;;5033098;28;20026;-86
2021/12/04 13:55:55;;;;;;;29.10;12.60;;;5.50;46.10;;;;;;5032556;28;20255;-88
2021/12/04 13:58:22;;;;;;;37.10;13.60;;;5.50;46.20;;;;;;5032433;28;20068;-87
2021/12/04 14:00:48;;;;;;;42.37;16.50;;;5.40;46.30;;;;;;5032644;28;20041;-86
2021/12/04 14:03:19;;;;;;;;;;;5.40;46.40;;;;;;5032803;28;20057;-85
2021/12/04 14:05:44;;;;;;;33.77;14.53;;;5.40;46.60;;;;;;5032007;28;19917;-87
2021/12/04 14:08:10;;;;;;;25.33;11.20;;;5.30;46.50;;;;;;5032769;28;20099;-87
2021/12/04 14:10:43;;;;;;;29.63;12.77;;;5.30;46.80;;;;;;5032423;28;20074;-87
2021/12/04 14:13:13;;;;;;;29.50;14.13;;;5.20;46.90;;;;;;5016397;28;20486;-86
2021/12/04 14:15:44;;;;;;;31.47;13.40;;;5.10;47.00;;;;;;5032450;28;20083;-87
2021/12/04 14:18:18;;;;;;;28.37;13.77;;;5.10;47.20;;;;;;5032977;28;20021;-87
2021/12/04 14:20:48;;;;;;;30.70;14.07;;;5.00;47.40;;;;;;5032105;28;20532;-87
2021/12/04 14:23:13;;;;;;;32.03;14.77;;;5.00;47.50;;;;;;5032502;28;20052;-88
2021/12/04 14:25:44;;;;;;;32.60;14.55;;;5.00;47.50;;;;;;5032112;28;20026;-87
2021/12/04 14:28:16;;;;;;;33.00;16.20;;;4.90;47.60;;;;;;5033583;28;20025;-88
2021/12/04 14:30:45;;;;;;;35.27;17.17;;;4.90;47.60;;;;;;5031386;28;20071;-88
2021/12/04 14:33:15;;;;;;;36.10;16.27;;;4.90;47.70;;;;;;5032522;28;20029;-88
2021/12/04 14:35:44;;;;;;;39.63;16.20;;;4.80;47.80;;;;;;5033087;28;20009;-87
2021/12/04 14:38:15;;;;;;;40.53;17.23;;;4.80;47.90;;;;;;5032177;28;20095;-88
2021/12/04 14:40:44;;;;;;;43.57;17.83;;;4.80;48.10;;;;;;5032242;28;20017;-87
2021/12/04 14:43:12;;;;;;;41.87;16.87;;;4.80;48.30;;;;;;5032828;28;20029;-88
2021/12/04 14:45:40;;;;;;;39.17;16.30;;;4.80;48.50;;;;;;5032469;28;20025;-85
2021/12/04 14:48:15;;;;;;;47.43;18.33;;;4.80;48.60;;;;;;5032917;28;20025;-92
2021/12/04 14:50:46;;;;;;;43.83;17.87;;;4.70;48.90;;;;;;5016970;28;20026;-86
2021/12/04 14:53:15;;;;;;;38.43;16.57;;;4.70;49.20;;;;;;5032147;28;20500;-85
2021/12/04 14:55:43;;;;;;;40.17;17.60;;;4.70;49.60;;;;;;5031525;28;20076;-86
2021/12/04 14:58:13;;;;;;;44.07;17.13;;;4.60;49.80;;;;;;5035205;28;20417;-84
2021/12/04 15:00:56;;;;;;;43.50;17.20;;;4.60;50.10;;;;;;5036486;28;20377;-86
2021/12/04 15:03:41;;;;;;;39.60;16.70;;;4.60;50.40;;;;;;5035327;28;20110;-85
2021/12/04 15:06:11;;;;;;;43.13;16.77;;;4.50;50.50;;;;;;5035343;28;20083;-85
2021/12/04 15:08:43;;;;;;;35.83;16.47;;;4.50;50.50;;;;;;5036557;28;20029;-86
2021/12/04 15:11:10;;;;;;;35.97;16.37;;;4.50;50.80;;;;;;5035241;28;20060;-85
2021/12/04 15:13:50;;;;;;;41.13;17.73;;;4.40;50.90;;;;;;5035272;28;20104;-85
2021/12/04 15:16:18;;;;;;;40.53;17.80;;;4.40;50.90;;;;;;5034132;28;20433;-86
2021/12/04 15:18:44;;;;;;;51.10;19.67;;;4.40;51.00;;;;;;5035167;28;20025;-87
2021/12/04 15:21:14;;;;;;;42.00;18.33;;;4.40;51.10;;;;;;5034829;28;20021;-86
2021/12/04 15:23:41;;;;;;;235.57;76.33;;;4.30;51.30;;;;;;5035040;28;20028;-87
2021/12/04 15:26:20;;;;;;;120.53;60.97;;;4.30;51.40;;;;;;5034931;28;20037;-87
2021/12/04 15:28:54;;;;;;;102.30;42.63;;;4.30;51.40;;;;;;5034934;28;20060;-85
2021/12/04 15:31:23;;;;;;;104.23;44.33;;;4.30;51.40;;;;;;5034817;28;20053;-86
2021/12/04 15:33:53;;;;;;;82.77;34.40;;;4.30;51.50;;;;;;5035141;28;20041;-86
2021/12/04 15:36:39;;;;;;;71.60;29.87;;;4.30;51.50;;;;;;5032366;28;20466;-84
2021/12/04 15:39:12;;;;;;;116.72;42.95;;;4.30;51.70;;;;;;5035058;28;20143;-86
2021/12/04 15:42:14;;;;;;;100.63;38.87;;;4.30;51.70;;;;;;5037225;28;20017;-87
2021/12/04 15:44:44;;;;;;;72.93;31.83;;;4.30;51.80;;;;;;5035718;28;20385;-87
2021/12/04 15:55:14;;;;;;;70.97;27.37;;;4.10;52.50;;;;;;5036958;28;20045;-89
2021/12/04 15:57:51;;;;;;;67.43;32.73;;;4.10;52.60;;;;;;5034297;28;20026;-86
2021/12/04 16:00:17;;;;;;;73.53;29.92;;;4.20;52.60;;;;;;5036326;28;20037;-87
2021/12/04 16:02:45;;;;;;;71.07;27.35;;;4.20;52.70;;;;;;5034975;28;20541;-85
2021/12/04 16:05:18;;;;;;;68.57;29.43;;;4.20;52.80;;;;;;5034376;28;20075;-88
2021/12/04 16:07:49;;;;;;;39.33;17.73;;;4.10;52.90;;;;;;5033958;28;20071;-88